Aérodrome :
LOGIN :

S'inscrire | Disclaimer

   EN    FR    IT 

 










Légende :    VFR   VFR Marginal   IFR   IFR Intensif   IFR Très Intensif
Visi : 
Plafond : 
>= 8 km
>= 3000ft
5 à 8 km
1000 à 3000 ft
1500m à 5 km
500 à 1000 ft
800 à 1500m
200 à 500 ft
< 800m
< 200 ft
Symboles :   Orages  Brouillard  Fortes neiges  Fortes précipitations  Vent > 20 kt
SIGMETs :   Divers  Orages  Givrage  Turbulence  Onde Orograph.  Cendres Volcan.






- Altitude de l'aérodrome : 25 ft
- Code IATA : QCY


EGXC - RAF Coningsby

DERNIER METAR :
  • 241750Z 26020KT 9999 SCT040 SCT250 11/06 Q0998 RMK BLU

METARs EXPIRÉS :
  • 241650Z 25024KT 9999 FEW030 SCT050 BKN250 12/07 Q0997 RMK BLU
  • 241620Z 25025KT 9999 FEW030 BKN250 13/07 Q0996 NOSIG RMK BLU BLU
  • 241550Z 25020G31KT 9999 SCT040 BKN250 13/09 Q0997 NOSIG RMK BLU BLU
  • 241520Z 25022G36KT 9999 BKN040 BKN250 14/10 Q0997 NOSIG RMK BLU BLU

TAF TAF EGXC
Valide du 24 à 18h jusqu'au 25 à 12h UTC


241652Z 2418/2512 27020G33KT 9999 SCT030
BECMG 2420/2423 26014KT
PROB30
TEMPO 2506/2510 SCT010
PROB30
TEMPO 2510/2512 27015G26KT 6000 SHRA BKN024CB



MET'MAP, la Météo Aéronautique d'un coup d'oeil ! - Copyright ORBIFLY Décembre 2007 - Disclaimer

ORBIFLY MET'MAP TEAM :

Programmation & Développement : Alexandra Zaïnal
Sur une idée originale de : Baudouin d'Aumeries
Assistance à la programmation : Marc-Olivier Méhu
Soutien technique & logistique : Manuel Goepfert

Contact : metmap@orbifly.com




SOURCES & CREDITS :

   NOAA